sensor_id;sensor_type;location;lat;lon;timestamp;P1;durP1;ratioP1;P2;durP2;ratioP2
67585;SDS011;55785;47.946;20.540;2023-04-24T00:02:07;5.97;;;2.90;;
67585;SDS011;55785;47.946;20.540;2023-04-24T00:04:32;8.60;;;3.30;;
67585;SDS011;55785;47.946;20.540;2023-04-24T00:06:57;5.90;;;3.17;;
67585;SDS011;55785;47.946;20.540;2023-04-24T00:09:23;6.37;;;3.20;;
67585;SDS011;55785;47.946;20.540;2023-04-24T00:11:48;4.83;;;3.17;;
67585;SDS011;55785;47.946;20.540;2023-04-24T00:14:13;5.43;;;3.40;;
67585;SDS011;55785;47.946;20.540;2023-04-24T00:16:39;4.10;;;3.20;;
67585;SDS011;55785;47.946;20.540;2023-04-24T00:19:04;6.13;;;3.40;;
67585;SDS011;55785;47.946;20.540;2023-04-24T00:21:29;3.70;;;3.07;;
67585;SDS011;55785;47.946;20.540;2023-04-24T00:23:55;4.63;;;3.33;;
67585;SDS011;55785;47.946;20.540;2023-04-24T00:26:20;4.60;;;3.10;;
67585;SDS011;55785;47.946;20.540;2023-04-24T00:28:45;5.60;;;3.03;;
67585;SDS011;55785;47.946;20.540;2023-04-24T00:31:11;6.30;;;3.33;;
67585;SDS011;55785;47.946;20.540;2023-04-24T00:33:37;7.00;;;3.10;;
67585;SDS011;55785;47.946;20.540;2023-04-24T00:36:02;5.70;;;3.50;;
67585;SDS011;55785;47.946;20.540;2023-04-24T00:38:27;4.47;;;3.20;;
67585;SDS011;55785;47.946;20.540;2023-04-24T00:40:53;4.77;;;3.17;;
67585;SDS011;55785;47.946;20.540;2023-04-24T00:43:18;5.73;;;3.90;;
67585;SDS011;55785;47.946;20.540;2023-04-24T00:45:43;5.50;;;3.17;;
67585;SDS011;55785;47.946;20.540;2023-04-24T00:48:09;5.10;;;3.27;;
67585;SDS011;55785;47.946;20.540;2023-04-24T00:50:35;6.87;;;3.40;;
67585;SDS011;55785;47.946;20.540;2023-04-24T00:53:01;4.77;;;3.30;;
67585;SDS011;55785;47.946;20.540;2023-04-24T00:55:27;5.20;;;3.23;;
67585;SDS011;55785;47.946;20.540;2023-04-24T00:57:52;5.63;;;3.13;;
67585;SDS011;55785;47.946;20.540;2023-04-24T01:00:17;4.27;;;3.33;;
67585;SDS011;55785;47.946;20.540;2023-04-24T01:02:44;7.87;;;3.70;;
67585;SDS011;55785;47.946;20.540;2023-04-24T01:05:09;6.40;;;3.47;;
67585;SDS011;55785;47.946;20.540;2023-04-24T01:07:35;5.53;;;3.20;;
67585;SDS011;55785;47.946;20.540;2023-04-24T01:10:01;14.50;;;3.87;;
67585;SDS011;55785;47.946;20.540;2023-04-24T01:12:26;5.47;;;3.60;;
67585;SDS011;55785;47.946;20.540;2023-04-24T01:14:52;5.70;;;3.40;;
67585;SDS011;55785;47.946;20.540;2023-04-24T01:17:17;4.93;;;3.53;;
67585;SDS011;55785;47.946;20.540;2023-04-24T01:19:43;4.53;;;3.23;;
67585;SDS011;55785;47.946;20.540;2023-04-24T01:22:10;4.73;;;3.47;;
67585;SDS011;55785;47.946;20.540;2023-04-24T01:24:36;5.53;;;3.37;;
67585;SDS011;55785;47.946;20.540;2023-04-24T01:27:02;5.47;;;3.50;;
67585;SDS011;55785;47.946;20.540;2023-04-24T01:29:27;7.30;;;4.07;;
67585;SDS011;55785;47.946;20.540;2023-04-24T01:31:52;4.57;;;3.40;;
67585;SDS011;55785;47.946;20.540;2023-04-24T01:34:19;15.33;;;4.27;;
67585;SDS011;55785;47.946;20.540;2023-04-24T01:36:45;6.77;;;3.70;;
67585;SDS011;55785;47.946;20.540;2023-04-24T01:39:10;6.67;;;3.50;;
67585;SDS011;55785;47.946;20.540;2023-04-24T01:41:36;8.30;;;3.67;;
67585;SDS011;55785;47.946;20.540;2023-04-24T01:44:01;5.67;;;3.77;;
67585;SDS011;55785;47.946;20.540;2023-04-24T01:46:27;6.83;;;3.60;;
67585;SDS011;55785;47.946;20.540;2023-04-24T01:48:52;5.20;;;3.80;;
67585;SDS011;55785;47.946;20.540;2023-04-24T01:51:18;5.63;;;3.77;;
67585;SDS011;55785;47.946;20.540;2023-04-24T01:53:43;9.00;;;3.60;;
67585;SDS011;55785;47.946;20.540;2023-04-24T01:56:09;5.70;;;3.60;;
67585;SDS011;55785;47.946;20.540;2023-04-24T01:58:34;7.07;;;4.20;;
67585;SDS011;55785;47.946;20.540;2023-04-24T02:01:00;6.97;;;4.10;;
67585;SDS011;55785;47.946;20.540;2023-04-24T02:03:28;4.97;;;3.70;;
67585;SDS011;55785;47.946;20.540;2023-04-24T02:05:53;5.47;;;3.47;;
67585;SDS011;55785;47.946;20.540;2023-04-24T02:08:19;5.47;;;3.70;;
67585;SDS011;55785;47.946;20.540;2023-04-24T02:10:44;7.83;;;3.67;;
67585;SDS011;55785;47.946;20.540;2023-04-24T02:13:09;4.70;;;3.50;;
67585;SDS011;55785;47.946;20.540;2023-04-24T02:15:35;5.60;;;3.83;;
67585;SDS011;55785;47.946;20.540;2023-04-24T02:18:00;5.27;;;3.83;;
67585;SDS011;55785;47.946;20.540;2023-04-24T02:20:25;5.50;;;3.80;;
67585;SDS011;55785;47.946;20.540;2023-04-24T02:22:51;4.73;;;3.90;;
67585;SDS011;55785;47.946;20.540;2023-04-24T02:25:16;5.67;;;3.83;;
67585;SDS011;55785;47.946;20.540;2023-04-24T02:27:41;6.60;;;3.80;;
67585;SDS011;55785;47.946;20.540;2023-04-24T02:30:07;5.80;;;3.93;;
67585;SDS011;55785;47.946;20.540;2023-04-24T02:32:33;5.47;;;3.97;;
67585;SDS011;55785;47.946;20.540;2023-04-24T02:34:58;7.43;;;3.80;;
67585;SDS011;55785;47.946;20.540;2023-04-24T02:37:23;6.30;;;3.73;;
67585;SDS011;55785;47.946;20.540;2023-04-24T02:39:49;6.93;;;3.70;;
67585;SDS011;55785;47.946;20.540;2023-04-24T02:42:14;5.97;;;3.93;;
67585;SDS011;55785;47.946;20.540;2023-04-24T02:44:39;7.03;;;4.10;;
67585;SDS011;55785;47.946;20.540;2023-04-24T02:47:05;6.10;;;3.93;;
67585;SDS011;55785;47.946;20.540;2023-04-24T02:49:30;5.13;;;3.70;;
67585;SDS011;55785;47.946;20.540;2023-04-24T02:51:55;4.53;;;3.50;;
67585;SDS011;55785;47.946;20.540;2023-04-24T02:54:20;6.13;;;4.00;;
67585;SDS011;55785;47.946;20.540;2023-04-24T02:56:46;6.60;;;3.97;;
67585;SDS011;55785;47.946;20.540;2023-04-24T02:59:11;8.27;;;3.97;;
67585;SDS011;55785;47.946;20.540;2023-04-24T03:01:36;7.47;;;3.73;;
67585;SDS011;55785;47.946;20.540;2023-04-24T03:04:02;6.50;;;4.10;;
67585;SDS011;55785;47.946;20.540;2023-04-24T03:06:27;7.37;;;3.80;;
67585;SDS011;55785;47.946;20.540;2023-04-24T03:08:52;5.97;;;3.90;;
67585;SDS011;55785;47.946;20.540;2023-04-24T03:11:18;6.63;;;4.00;;
67585;SDS011;55785;47.946;20.540;2023-04-24T03:13:43;7.10;;;4.10;;
67585;SDS011;55785;47.946;20.540;2023-04-24T03:16:08;6.83;;;3.80;;
67585;SDS011;55785;47.946;20.540;2023-04-24T03:18:34;6.77;;;4.00;;
67585;SDS011;55785;47.946;20.540;2023-04-24T03:21:00;7.33;;;3.80;;
67585;SDS011;55785;47.946;20.540;2023-04-24T03:23:25;5.20;;;3.87;;
67585;SDS011;55785;47.946;20.540;2023-04-24T03:25:51;6.17;;;3.83;;
67585;SDS011;55785;47.946;20.540;2023-04-24T03:28:16;5.33;;;3.60;;
67585;SDS011;55785;47.946;20.540;2023-04-24T03:30:41;6.40;;;3.93;;
67585;SDS011;55785;47.946;20.540;2023-04-24T03:33:07;5.67;;;3.87;;
67585;SDS011;55785;47.946;20.540;2023-04-24T03:35:32;6.77;;;4.10;;
67585;SDS011;55785;47.946;20.540;2023-04-24T03:37:57;6.87;;;3.87;;
67585;SDS011;55785;47.946;20.540;2023-04-24T03:40:23;8.60;;;4.00;;
67585;SDS011;55785;47.946;20.540;2023-04-24T03:42:48;6.33;;;4.00;;
67585;SDS011;55785;47.946;20.540;2023-04-24T03:45:13;5.57;;;3.90;;
67585;SDS011;55785;47.946;20.540;2023-04-24T03:47:39;6.03;;;3.90;;
67585;SDS011;55785;47.946;20.540;2023-04-24T03:50:04;7.17;;;4.13;;
67585;SDS011;55785;47.946;20.540;2023-04-24T03:52:30;6.00;;;4.27;;
67585;SDS011;55785;47.946;20.540;2023-04-24T03:54:55;9.23;;;4.17;;
67585;SDS011;55785;47.946;20.540;2023-04-24T03:57:21;9.77;;;4.70;;
67585;SDS011;55785;47.946;20.540;2023-04-24T03:59:46;7.40;;;3.97;;
67585;SDS011;55785;47.946;20.540;2023-04-24T04:02:11;6.37;;;3.90;;
67585;SDS011;55785;47.946;20.540;2023-04-24T04:04:37;6.13;;;3.93;;
67585;SDS011;55785;47.946;20.540;2023-04-24T04:07:02;8.23;;;4.60;;
67585;SDS011;55785;47.946;20.540;2023-04-24T04:09:27;6.70;;;4.27;;
67585;SDS011;55785;47.946;20.540;2023-04-24T04:11:53;6.03;;;3.90;;
67585;SDS011;55785;47.946;20.540;2023-04-24T04:14:18;9.70;;;4.50;;
67585;SDS011;55785;47.946;20.540;2023-04-24T04:16:43;10.20;;;4.07;;
67585;SDS011;55785;47.946;20.540;2023-04-24T04:19:09;6.73;;;4.20;;
67585;SDS011;55785;47.946;20.540;2023-04-24T04:21:34;7.40;;;4.00;;
67585;SDS011;55785;47.946;20.540;2023-04-24T04:23:59;6.00;;;4.13;;
67585;SDS011;55785;47.946;20.540;2023-04-24T04:26:25;5.20;;;3.93;;
67585;SDS011;55785;47.946;20.540;2023-04-24T04:28:51;6.47;;;4.10;;
67585;SDS011;55785;47.946;20.540;2023-04-24T04:31:17;6.90;;;4.03;;
67585;SDS011;55785;47.946;20.540;2023-04-24T04:33:42;6.37;;;4.60;;
67585;SDS011;55785;47.946;20.540;2023-04-24T04:36:08;7.50;;;3.93;;
67585;SDS011;55785;47.946;20.540;2023-04-24T04:38:33;6.07;;;4.00;;
67585;SDS011;55785;47.946;20.540;2023-04-24T04:40:59;7.10;;;3.93;;
67585;SDS011;55785;47.946;20.540;2023-04-24T04:43:24;6.00;;;3.77;;
67585;SDS011;55785;47.946;20.540;2023-04-24T04:45:50;7.33;;;3.80;;
67585;SDS011;55785;47.946;20.540;2023-04-24T04:48:17;9.60;;;4.07;;
67585;SDS011;55785;47.946;20.540;2023-04-24T04:50:42;6.87;;;4.00;;
67585;SDS011;55785;47.946;20.540;2023-04-24T04:53:08;5.83;;;3.57;;
67585;SDS011;55785;47.946;20.540;2023-04-24T04:55:33;8.60;;;3.88;;
67585;SDS011;55785;47.946;20.540;2023-04-24T04:57:58;6.03;;;3.80;;
67585;SDS011;55785;47.946;20.540;2023-04-24T05:00:24;6.43;;;3.60;;
67585;SDS011;55785;47.946;20.540;2023-04-24T05:02:49;10.82;;;3.90;;
67585;SDS011;55785;47.946;20.540;2023-04-24T05:05:14;6.57;;;3.60;;
67585;SDS011;55785;47.946;20.540;2023-04-24T05:07:40;5.28;;;3.55;;
67585;SDS011;55785;47.946;20.540;2023-04-24T05:10:05;5.72;;;3.88;;
67585;SDS011;55785;47.946;20.540;2023-04-24T05:12:31;6.13;;;3.78;;
67585;SDS011;55785;47.946;20.540;2023-04-24T05:14:56;6.25;;;4.22;;
67585;SDS011;55785;47.946;20.540;2023-04-24T05:17:22;5.30;;;3.87;;
67585;SDS011;55785;47.946;20.540;2023-04-24T05:19:47;6.97;;;3.60;;
67585;SDS011;55785;47.946;20.540;2023-04-24T05:22:12;5.85;;;3.75;;
67585;SDS011;55785;47.946;20.540;2023-04-24T05:24:38;6.47;;;3.70;;
67585;SDS011;55785;47.946;20.540;2023-04-24T05:27:03;7.88;;;3.85;;
67585;SDS011;55785;47.946;20.540;2023-04-24T05:29:29;8.05;;;3.75;;
67585;SDS011;55785;47.946;20.540;2023-04-24T05:31:54;5.30;;;3.75;;
67585;SDS011;55785;47.946;20.540;2023-04-24T05:34:19;9.57;;;3.80;;
67585;SDS011;55785;47.946;20.540;2023-04-24T05:36:44;6.80;;;4.00;;
67585;SDS011;55785;47.946;20.540;2023-04-24T05:39:10;6.03;;;3.75;;
67585;SDS011;55785;47.946;20.540;2023-04-24T05:41:35;9.77;;;3.97;;
67585;SDS011;55785;47.946;20.540;2023-04-24T05:44:00;7.60;;;3.67;;
67585;SDS011;55785;47.946;20.540;2023-04-24T05:46:26;4.70;;;3.70;;
67585;SDS011;55785;47.946;20.540;2023-04-24T05:48:51;5.63;;;3.63;;
67585;SDS011;55785;47.946;20.540;2023-04-24T05:51:17;7.82;;;3.70;;
67585;SDS011;55785;47.946;20.540;2023-04-24T05:53:42;7.88;;;3.72;;
67585;SDS011;55785;47.946;20.540;2023-04-24T05:56:07;8.50;;;3.53;;
67585;SDS011;55785;47.946;20.540;2023-04-24T05:58:33;8.88;;;3.42;;
67585;SDS011;55785;47.946;20.540;2023-04-24T06:00:58;5.53;;;3.80;;
67585;SDS011;55785;47.946;20.540;2023-04-24T06:03:24;5.88;;;3.78;;
67585;SDS011;55785;47.946;20.540;2023-04-24T06:05:50;5.20;;;3.75;;
67585;SDS011;55785;47.946;20.540;2023-04-24T06:08:15;6.70;;;3.78;;
67585;SDS011;55785;47.946;20.540;2023-04-24T06:10:41;5.90;;;3.55;;
67585;SDS011;55785;47.946;20.540;2023-04-24T06:13:06;7.70;;;4.75;;
67585;SDS011;55785;47.946;20.540;2023-04-24T06:15:31;7.28;;;4.00;;
67585;SDS011;55785;47.946;20.540;2023-04-24T06:17:57;10.20;;;3.85;;
67585;SDS011;55785;47.946;20.540;2023-04-24T06:20:22;8.55;;;3.65;;
67585;SDS011;55785;47.946;20.540;2023-04-24T06:22:48;7.95;;;3.90;;
67585;SDS011;55785;47.946;20.540;2023-04-24T06:25:13;5.68;;;4.10;;
67585;SDS011;55785;47.946;20.540;2023-04-24T06:27:39;11.45;;;4.93;;
67585;SDS011;55785;47.946;20.540;2023-04-24T06:30:04;5.88;;;3.50;;
67585;SDS011;55785;47.946;20.540;2023-04-24T06:32:30;8.80;;;3.65;;
67585;SDS011;55785;47.946;20.540;2023-04-24T06:34:55;5.68;;;3.45;;
67585;SDS011;55785;47.946;20.540;2023-04-24T06:37:21;7.25;;;3.85;;
67585;SDS011;55785;47.946;20.540;2023-04-24T06:39:46;5.50;;;3.80;;
67585;SDS011;55785;47.946;20.540;2023-04-24T06:42:11;8.40;;;3.85;;
67585;SDS011;55785;47.946;20.540;2023-04-24T06:44:37;6.60;;;3.80;;
67585;SDS011;55785;47.946;20.540;2023-04-24T06:47:02;5.25;;;3.72;;
67585;SDS011;55785;47.946;20.540;2023-04-24T06:49:28;6.97;;;3.80;;
67585;SDS011;55785;47.946;20.540;2023-04-24T06:51:53;5.38;;;3.72;;
67585;SDS011;55785;47.946;20.540;2023-04-24T06:54:18;6.20;;;3.88;;
67585;SDS011;55785;47.946;20.540;2023-04-24T06:56:44;7.15;;;3.70;;
67585;SDS011;55785;47.946;20.540;2023-04-24T06:59:09;6.22;;;3.90;;
67585;SDS011;55785;47.946;20.540;2023-04-24T07:01:34;5.05;;;3.75;;
67585;SDS011;55785;47.946;20.540;2023-04-24T07:04:00;7.80;;;4.15;;
67585;SDS011;55785;47.946;20.540;2023-04-24T07:06:25;6.55;;;3.58;;
67585;SDS011;55785;47.946;20.540;2023-04-24T07:08:50;5.00;;;3.65;;
67585;SDS011;55785;47.946;20.540;2023-04-24T07:11:16;6.57;;;3.80;;
67585;SDS011;55785;47.946;20.540;2023-04-24T07:13:41;8.07;;;4.13;;
67585;SDS011;55785;47.946;20.540;2023-04-24T07:16:07;5.00;;;3.50;;
67585;SDS011;55785;47.946;20.540;2023-04-24T07:18:32;6.72;;;4.00;;
67585;SDS011;55785;47.946;20.540;2023-04-24T07:20:58;6.32;;;4.10;;
67585;SDS011;55785;47.946;20.540;2023-04-24T07:23:23;7.10;;;3.95;;
67585;SDS011;55785;47.946;20.540;2023-04-24T07:25:48;7.43;;;3.80;;
67585;SDS011;55785;47.946;20.540;2023-04-24T07:28:14;6.53;;;4.03;;
67585;SDS011;55785;47.946;20.540;2023-04-24T07:30:39;7.38;;;4.13;;
67585;SDS011;55785;47.946;20.540;2023-04-24T07:33:04;7.40;;;3.90;;
67585;SDS011;55785;47.946;20.540;2023-04-24T07:35:30;6.90;;;4.25;;
67585;SDS011;55785;47.946;20.540;2023-04-24T07:37:55;6.13;;;4.30;;
67585;SDS011;55785;47.946;20.540;2023-04-24T07:40:21;8.80;;;4.28;;
67585;SDS011;55785;47.946;20.540;2023-04-24T07:42:46;5.75;;;4.05;;
67585;SDS011;55785;47.946;20.540;2023-04-24T07:45:12;5.20;;;4.13;;
67585;SDS011;55785;47.946;20.540;2023-04-24T07:47:37;5.30;;;3.80;;
67585;SDS011;55785;47.946;20.540;2023-04-24T07:50:03;7.20;;;4.15;;
67585;SDS011;55785;47.946;20.540;2023-04-24T07:52:28;5.15;;;4.03;;
67585;SDS011;55785;47.946;20.540;2023-04-24T07:54:54;7.32;;;3.90;;
67585;SDS011;55785;47.946;20.540;2023-04-24T07:57:20;7.07;;;4.40;;
67585;SDS011;55785;47.946;20.540;2023-04-24T07:59:45;8.35;;;4.05;;
67585;SDS011;55785;47.946;20.540;2023-04-24T08:02:10;6.70;;;4.10;;
67585;SDS011;55785;47.946;20.540;2023-04-24T08:04:36;6.15;;;3.83;;
67585;SDS011;55785;47.946;20.540;2023-04-24T08:07:01;5.63;;;4.30;;
67585;SDS011;55785;47.946;20.540;2023-04-24T08:09:26;6.72;;;4.40;;
67585;SDS011;55785;47.946;20.540;2023-04-24T08:11:52;6.00;;;4.38;;
67585;SDS011;55785;47.946;20.540;2023-04-24T08:14:17;5.63;;;4.10;;
67585;SDS011;55785;47.946;20.540;2023-04-24T08:16:42;5.35;;;4.50;;
67585;SDS011;55785;47.946;20.540;2023-04-24T08:19:08;7.47;;;4.68;;
67585;SDS011;55785;47.946;20.540;2023-04-24T08:21:33;9.00;;;5.43;;
67585;SDS011;55785;47.946;20.540;2023-04-24T08:23:58;8.23;;;5.00;;
67585;SDS011;55785;47.946;20.540;2023-04-24T08:26:24;6.07;;;4.78;;
67585;SDS011;55785;47.946;20.540;2023-04-24T08:28:49;8.07;;;5.00;;
67585;SDS011;55785;47.946;20.540;2023-04-24T08:31:14;10.73;;;5.53;;
67585;SDS011;55785;47.946;20.540;2023-04-24T08:33:40;9.02;;;5.40;;
67585;SDS011;55785;47.946;20.540;2023-04-24T08:36:05;11.32;;;5.57;;
67585;SDS011;55785;47.946;20.540;2023-04-24T08:38:31;8.15;;;5.22;;
67585;SDS011;55785;47.946;20.540;2023-04-24T08:41:00;11.32;;;5.85;;
67585;SDS011;55785;47.946;20.540;2023-04-24T08:43:26;8.23;;;5.22;;
67585;SDS011;55785;47.946;20.540;2023-04-24T08:45:53;9.45;;;5.85;;
67585;SDS011;55785;47.946;20.540;2023-04-24T08:48:22;10.88;;;5.20;;
67585;SDS011;55785;47.946;20.540;2023-04-24T08:50:48;8.65;;;5.57;;
67585;SDS011;55785;47.946;20.540;2023-04-24T08:53:16;6.70;;;5.15;;
67585;SDS011;55785;47.946;20.540;2023-04-24T08:55:42;12.88;;;6.88;;
67585;SDS011;55785;47.946;20.540;2023-04-24T08:58:11;8.80;;;5.65;;
67585;SDS011;55785;47.946;20.540;2023-04-24T09:00:38;7.15;;;5.28;;
67585;SDS011;55785;47.946;20.540;2023-04-24T09:03:04;8.98;;;5.03;;
67585;SDS011;55785;47.946;20.540;2023-04-24T09:05:30;8.65;;;5.25;;
67585;SDS011;55785;47.946;20.540;2023-04-24T09:07:57;9.65;;;5.43;;
67585;SDS011;55785;47.946;20.540;2023-04-24T09:10:26;9.57;;;5.38;;
67585;SDS011;55785;47.946;20.540;2023-04-24T09:12:52;8.20;;;5.40;;
67585;SDS011;55785;47.946;20.540;2023-04-24T09:15:19;12.32;;;5.90;;
67585;SDS011;55785;47.946;20.540;2023-04-24T09:17:45;8.80;;;5.63;;
67585;SDS011;55785;47.946;20.540;2023-04-24T09:20:10;8.93;;;5.72;;
67585;SDS011;55785;47.946;20.540;2023-04-24T09:22:36;7.63;;;6.10;;
67585;SDS011;55785;47.946;20.540;2023-04-24T09:25:05;8.50;;;6.22;;
67585;SDS011;55785;47.946;20.540;2023-04-24T09:27:34;10.32;;;5.93;;
67585;SDS011;55785;47.946;20.540;2023-04-24T09:30:00;10.30;;;6.05;;
67585;SDS011;55785;47.946;20.540;2023-04-24T09:32:26;9.23;;;6.45;;
67585;SDS011;55785;47.946;20.540;2023-04-24T09:35:11;8.40;;;6.05;;
67585;SDS011;55785;47.946;20.540;2023-04-24T09:37:38;9.45;;;6.20;;
67585;SDS011;55785;47.946;20.540;2023-04-24T09:40:18;9.15;;;6.25;;
67585;SDS011;55785;47.946;20.540;2023-04-24T09:42:52;9.43;;;6.32;;
67585;SDS011;55785;47.946;20.540;2023-04-24T09:45:19;8.68;;;6.15;;
67585;SDS011;55785;47.946;20.540;2023-04-24T09:47:45;8.30;;;6.22;;
67585;SDS011;55785;47.946;20.540;2023-04-24T09:50:14;9.55;;;6.65;;
67585;SDS011;55785;47.946;20.540;2023-04-24T09:52:44;11.00;;;6.47;;
67585;SDS011;55785;47.946;20.540;2023-04-24T09:55:21;8.77;;;6.30;;
67585;SDS011;55785;47.946;20.540;2023-04-24T09:57:49;8.65;;;6.35;;
67585;SDS011;55785;47.946;20.540;2023-04-24T10:00:28;10.57;;;6.60;;
67585;SDS011;55785;47.946;20.540;2023-04-24T10:03:02;11.93;;;6.85;;
67585;SDS011;55785;47.946;20.540;2023-04-24T10:05:32;10.40;;;7.10;;
67585;SDS011;55785;47.946;20.540;2023-04-24T10:10:29;8.20;;;6.80;;
67585;SDS011;55785;47.946;20.540;2023-04-24T10:12:55;9.15;;;6.43;;
67585;SDS011;55785;47.946;20.540;2023-04-24T10:15:20;10.07;;;6.82;;
67585;SDS011;55785;47.946;20.540;2023-04-24T10:17:49;8.73;;;6.75;;
67585;SDS011;55785;47.946;20.540;2023-04-24T10:20:15;9.98;;;6.75;;
67585;SDS011;55785;47.946;20.540;2023-04-24T10:22:41;11.10;;;7.40;;
67585;SDS011;55785;47.946;20.540;2023-04-24T10:25:06;8.73;;;6.82;;
67585;SDS011;55785;47.946;20.540;2023-04-24T10:27:33;10.38;;;6.90;;
67585;SDS011;55785;47.946;20.540;2023-04-24T10:30:00;10.80;;;7.68;;
67585;SDS011;55785;47.946;20.540;2023-04-24T10:32:26;10.52;;;7.28;;
67585;SDS011;55785;47.946;20.540;2023-04-24T10:34:51;11.05;;;6.72;;
67585;SDS011;55785;47.946;20.540;2023-04-24T10:37:17;8.68;;;7.03;;
67585;SDS011;55785;47.946;20.540;2023-04-24T10:39:42;10.07;;;7.45;;
67585;SDS011;55785;47.946;20.540;2023-04-24T10:42:16;9.07;;;7.40;;
67585;SDS011;55785;47.946;20.540;2023-04-24T10:44:41;9.93;;;7.47;;
67585;SDS011;55785;47.946;20.540;2023-04-24T10:47:08;14.32;;;7.57;;
67585;SDS011;55785;47.946;20.540;2023-04-24T10:49:38;11.27;;;7.43;;
67585;SDS011;55785;47.946;20.540;2023-04-24T10:52:04;9.40;;;7.10;;
67585;SDS011;55785;47.946;20.540;2023-04-24T10:54:34;11.00;;;7.28;;
67585;SDS011;55785;47.946;20.540;2023-04-24T11:02:46;9.75;;;7.45;;
67585;SDS011;55785;47.946;20.540;2023-04-24T11:05:12;10.40;;;7.32;;
67585;SDS011;55785;47.946;20.540;2023-04-24T11:10:43;11.23;;;7.15;;
67585;SDS011;55785;47.946;20.540;2023-04-24T11:13:09;12.55;;;7.25;;
67585;SDS011;55785;47.946;20.540;2023-04-24T11:15:35;10.55;;;7.40;;
67585;SDS011;55785;47.946;20.540;2023-04-24T11:18:00;9.45;;;7.55;;
67585;SDS011;55785;47.946;20.540;2023-04-24T11:20:25;11.90;;;7.70;;
67585;SDS011;55785;47.946;20.540;2023-04-24T11:22:52;9.35;;;6.85;;
67585;SDS011;55785;47.946;20.540;2023-04-24T11:25:18;11.23;;;7.10;;
67585;SDS011;55785;47.946;20.540;2023-04-24T11:27:44;10.15;;;7.50;;
67585;SDS011;55785;47.946;20.540;2023-04-24T11:30:10;10.70;;;7.78;;
67585;SDS011;55785;47.946;20.540;2023-04-24T11:32:36;11.48;;;7.68;;
67585;SDS011;55785;47.946;20.540;2023-04-24T11:37:40;13.95;;;7.88;;
67585;SDS011;55785;47.946;20.540;2023-04-24T11:40:10;11.45;;;7.75;;
67585;SDS011;55785;47.946;20.540;2023-04-24T11:42:40;11.98;;;8.25;;
67585;SDS011;55785;47.946;20.540;2023-04-24T11:45:12;11.45;;;8.07;;
67585;SDS011;55785;47.946;20.540;2023-04-24T11:47:41;11.35;;;8.40;;
67585;SDS011;55785;47.946;20.540;2023-04-24T11:50:09;13.07;;;8.75;;
67585;SDS011;55785;47.946;20.540;2023-04-24T11:52:40;12.30;;;8.30;;
67585;SDS011;55785;47.946;20.540;2023-04-24T11:55:07;11.20;;;8.63;;
67585;SDS011;55785;47.946;20.540;2023-04-24T11:57:54;10.63;;;7.95;;
67585;SDS011;55785;47.946;20.540;2023-04-24T12:00:21;12.73;;;8.57;;
67585;SDS011;55785;47.946;20.540;2023-04-24T12:02:49;12.10;;;9.07;;
67585;SDS011;55785;47.946;20.540;2023-04-24T12:05:27;11.80;;;9.13;;
67585;SDS011;55785;47.946;20.540;2023-04-24T12:07:53;12.98;;;10.02;;
67585;SDS011;55785;47.946;20.540;2023-04-24T12:10:20;13.90;;;10.65;;
67585;SDS011;55785;47.946;20.540;2023-04-24T12:12:49;15.20;;;11.35;;
67585;SDS011;55785;47.946;20.540;2023-04-24T12:15:15;15.43;;;11.23;;
67585;SDS011;55785;47.946;20.540;2023-04-24T12:17:41;16.85;;;12.30;;
67585;SDS011;55785;47.946;20.540;2023-04-24T12:20:08;14.68;;;11.68;;
67585;SDS011;55785;47.946;20.540;2023-04-24T12:22:53;15.43;;;11.65;;
67585;SDS011;55785;47.946;20.540;2023-04-24T12:25:21;18.48;;;12.80;;
67585;SDS011;55785;47.946;20.540;2023-04-24T12:28:10;14.57;;;11.25;;
67585;SDS011;55785;47.946;20.540;2023-04-24T12:30:35;17.90;;;12.77;;
67585;SDS011;55785;47.946;20.540;2023-04-24T12:33:20;17.67;;;12.73;;
67585;SDS011;55785;47.946;20.540;2023-04-24T12:35:46;15.95;;;13.02;;
67585;SDS011;55785;47.946;20.540;2023-04-24T12:38:13;18.80;;;13.57;;
67585;SDS011;55785;47.946;20.540;2023-04-24T12:40:39;16.80;;;12.85;;
67585;SDS011;55785;47.946;20.540;2023-04-24T12:43:15;18.15;;;12.95;;
67585;SDS011;55785;47.946;20.540;2023-04-24T12:45:41;17.30;;;12.68;;
67585;SDS011;55785;47.946;20.540;2023-04-24T12:48:06;16.52;;;12.82;;
67585;SDS011;55785;47.946;20.540;2023-04-24T12:50:32;17.23;;;13.85;;
67585;SDS011;55785;47.946;20.540;2023-04-24T12:52:57;17.15;;;13.90;;
67585;SDS011;55785;47.946;20.540;2023-04-24T12:55:23;20.45;;;14.32;;
67585;SDS011;55785;47.946;20.540;2023-04-24T12:57:48;18.92;;;14.10;;
67585;SDS011;55785;47.946;20.540;2023-04-24T13:00:13;16.83;;;12.95;;
67585;SDS011;55785;47.946;20.540;2023-04-24T13:02:39;18.33;;;13.95;;
67585;SDS011;55785;47.946;20.540;2023-04-24T13:05:05;18.45;;;14.18;;
67585;SDS011;55785;47.946;20.540;2023-04-24T13:07:30;19.05;;;14.88;;
67585;SDS011;55785;47.946;20.540;2023-04-24T13:09:56;16.85;;;13.00;;
67585;SDS011;55785;47.946;20.540;2023-04-24T13:12:21;19.10;;;14.38;;
67585;SDS011;55785;47.946;20.540;2023-04-24T13:14:47;19.02;;;14.77;;
67585;SDS011;55785;47.946;20.540;2023-04-24T13:17:12;19.65;;;14.95;;
67585;SDS011;55785;47.946;20.540;2023-04-24T13:19:41;19.73;;;14.38;;
67585;SDS011;55785;47.946;20.540;2023-04-24T13:22:09;18.55;;;15.13;;
67585;SDS011;55785;47.946;20.540;2023-04-24T13:24:35;21.45;;;14.65;;
67585;SDS011;55785;47.946;20.540;2023-04-24T13:27:01;22.88;;;16.15;;
67585;SDS011;55785;47.946;20.540;2023-04-24T13:29:27;18.83;;;14.65;;
67585;SDS011;55785;47.946;20.540;2023-04-24T13:31:52;20.45;;;15.57;;
67585;SDS011;55785;47.946;20.540;2023-04-24T13:34:19;19.08;;;14.73;;
67585;SDS011;55785;47.946;20.540;2023-04-24T13:36:44;21.58;;;14.52;;
67585;SDS011;55785;47.946;20.540;2023-04-24T13:39:09;18.33;;;14.40;;
67585;SDS011;55785;47.946;20.540;2023-04-24T13:41:35;17.35;;;13.57;;
67585;SDS011;55785;47.946;20.540;2023-04-24T13:44:00;16.15;;;13.93;;
67585;SDS011;55785;47.946;20.540;2023-04-24T13:46:25;21.23;;;14.20;;
67585;SDS011;55785;47.946;20.540;2023-04-24T13:48:51;18.95;;;14.00;;
67585;SDS011;55785;47.946;20.540;2023-04-24T13:51:16;17.15;;;14.20;;
67585;SDS011;55785;47.946;20.540;2023-04-24T13:53:41;17.02;;;13.63;;
67585;SDS011;55785;47.946;20.540;2023-04-24T13:56:07;15.38;;;13.48;;
67585;SDS011;55785;47.946;20.540;2023-04-24T13:58:32;19.75;;;13.52;;
67585;SDS011;55785;47.946;20.540;2023-04-24T14:00:58;17.63;;;13.50;;
67585;SDS011;55785;47.946;20.540;2023-04-24T14:03:23;16.80;;;14.20;;
67585;SDS011;55785;47.946;20.540;2023-04-24T14:05:48;17.85;;;13.70;;
67585;SDS011;55785;47.946;20.540;2023-04-24T14:08:14;16.92;;;13.73;;
67585;SDS011;55785;47.946;20.540;2023-04-24T14:10:39;17.95;;;14.05;;
67585;SDS011;55785;47.946;20.540;2023-04-24T14:13:04;21.40;;;14.40;;
67585;SDS011;55785;47.946;20.540;2023-04-24T14:15:30;19.77;;;13.55;;
67585;SDS011;55785;47.946;20.540;2023-04-24T14:17:55;17.48;;;13.30;;
67585;SDS011;55785;47.946;20.540;2023-04-24T14:20:20;16.92;;;13.88;;
67585;SDS011;55785;47.946;20.540;2023-04-24T14:22:47;16.42;;;12.75;;
67585;SDS011;55785;47.946;20.540;2023-04-24T14:25:12;17.90;;;13.27;;
67585;SDS011;55785;47.946;20.540;2023-04-24T14:27:38;16.52;;;13.00;;
67585;SDS011;55785;47.946;20.540;2023-04-24T14:30:03;17.77;;;13.32;;
67585;SDS011;55785;47.946;20.540;2023-04-24T14:32:29;17.60;;;13.43;;
67585;SDS011;55785;47.946;20.540;2023-04-24T14:34:55;18.65;;;13.50;;
67585;SDS011;55785;47.946;20.540;2023-04-24T14:37:20;17.40;;;13.23;;